»·PEaware :: N3499M KJAC-KBOI

N3499M :: KJAC-KBOI

FLIGHT INFORMATION

Flight Status: Arrived
Operator: Privately registered:
United States
More flights under this callsign
Pilot: Steven N. (12360)
Aircraft: CESSNA 550 CITATION 2/S2/BRAVO
(C550)
More flights by this aircraft type
Origin: KJAC Jackson Hole
United States
Destination: KBOI Boise Air Terminal/Gowen
United States
More flights between these airports :: More routes between these airports
Route: ALPIN2 IDA V21 PIH V500 AROWS
File this flight plan on PilotEdge
Remarks:
Altitude:
(Current/Filed)
28,000ft
Speed:
(Current/Filed)
400kts
Departed: 29-Jan-21 03:47 PM
Arrived: 29-Jan-21 04:46 PM
Distance/Time
Traveled:
238nm/0:59
Distance/Time
To Go:
Arrived

Flight Plot

Page will automatically refresh every two minutes.

Flight plan parsing failed; only flown route is shown


Map Options




Map Legend


Flown Route
Filed Route
Departure Airport
Arrival Airport
Navaid (VOR, NDB)
Fix

Horizontal Profiles

Position Reports

Time Latitude Longitude Heading Altitude Ground
Speed
29-Jan-21 15:36 43.599266 -110.738889 298 6416ft 0kts
29-Jan-21 15:37 43.599266 -110.738889 298 6416ft 0kts
29-Jan-21 15:38 43.599266 -110.738889 298 6416ft 0kts
29-Jan-21 15:39 43.599266 -110.738889 298 6416ft 0kts
29-Jan-21 15:40 43.599266 -110.738889 298 6416ft 0kts
29-Jan-21 15:41 43.601306 -110.739084 19 6422ft 13kts
29-Jan-21 15:42 43.606080 -110.736761 18 6433ft 22kts
29-Jan-21 15:43 43.611730 -110.733999 20 6446ft 22kts
29-Jan-21 15:44 43.614934 -110.732656 335 6453ft 0kts
29-Jan-21 15:45 43.614627 -110.734221 198 6453ft 22kts
29-Jan-21 15:46 43.582207 -110.749854 207 7774ft 174kts
29-Jan-21 15:47 43.538500 -110.782606 207 10884ft 196kts
29-Jan-21 15:48 43.491366 -110.813453 207 13465ft 224kts
29-Jan-21 15:49 43.435953 -110.849053 207 16349ft 229kts
29-Jan-21 15:50 43.383645 -110.882638 207 18681ft 236kts
29-Jan-21 15:51 43.338506 -110.911568 207 20500ft 240kts
29-Jan-21 15:52 43.289978 -110.942619 207 22260ft 244kts
29-Jan-21 15:53 43.243863 -110.987431 236 23947ft 247kts
29-Jan-21 15:54 43.218556 -111.089392 249 25906ft 257kts
29-Jan-21 15:55 43.193491 -111.207134 249 27704ft 266kts
29-Jan-21 15:56 43.167088 -111.328495 249 27767ft 312kts
29-Jan-21 15:57 43.141387 -111.446668 249 27763ft 333kts
29-Jan-21 15:58 43.114798 -111.568209 250 27757ft 343kts
29-Jan-21 15:59 43.088303 -111.688516 249 27760ft 348kts
29-Jan-21 16:00 43.060079 -111.815842 249 27759ft 350kts
29-Jan-21 16:01 43.031671 -111.943238 249 27756ft 351kts
29-Jan-21 16:02 43.003103 -112.070595 249 27752ft 352kts
29-Jan-21 16:03 42.974308 -112.198220 249 27739ft 352kts
29-Jan-21 16:04 42.945224 -112.326308 248 27727ft 352kts
29-Jan-21 16:05 42.915748 -112.455346 250 27739ft 360kts
29-Jan-21 16:06 42.886674 -112.581937 250 27743ft 364kts
29-Jan-21 16:07 42.883358 -112.715090 280 27746ft 378kts
29-Jan-21 16:08 42.912334 -112.854369 282 27637ft 382kts
29-Jan-21 16:09 42.941862 -112.995201 284 27049ft 388kts
29-Jan-21 16:10 42.971290 -113.137617 284 26447ft 391kts
29-Jan-21 16:11 43.000446 -113.279801 284 25839ft 382kts
29-Jan-21 16:12 43.028642 -113.418313 284 25231ft 375kts
29-Jan-21 16:13 43.056385 -113.555588 284 24626ft 374kts
29-Jan-21 16:14 43.083326 -113.689903 283 24038ft 375kts
29-Jan-21 16:15 43.109860 -113.823002 283 23752ft 368kts
29-Jan-21 16:16 43.136212 -113.956092 283 23752ft 361kts
29-Jan-21 16:17 43.161422 -114.084127 283 23753ft 358kts
29-Jan-21 16:18 43.185047 -114.205109 283 23753ft 357kts
29-Jan-21 16:19 43.208809 -114.327647 283 23751ft 356kts
29-Jan-21 16:20 43.234416 -114.460239 283 23541ft 362kts
29-Jan-21 16:21 43.260323 -114.595296 283 23029ft 369kts
29-Jan-21 16:22 43.284333 -114.721366 282 22564ft 372kts
29-Jan-21 16:23 43.310520 -114.859836 282 22061ft 372kts
29-Jan-21 16:24 43.335884 -114.994841 282 21560ft 362kts
29-Jan-21 16:25 43.360533 -115.127085 284 21057ft 353kts
29-Jan-21 16:26 43.384453 -115.256357 285 20554ft 347kts
29-Jan-21 16:27 43.408025 -115.384570 285 20047ft 344kts
29-Jan-21 16:28 43.431073 -115.510834 285 19537ft 338kts
29-Jan-21 16:29 43.458780 -115.633530 293 18622ft 331kts
29-Jan-21 16:30 43.492146 -115.746155 292 17061ft 322kts
29-Jan-21 16:31 43.525820 -115.858885 292 15468ft 318kts
29-Jan-21 16:32 43.559595 -115.971039 293 13870ft 317kts
29-Jan-21 16:33 43.593430 -116.082617 293 12268ft 312kts
29-Jan-21 16:34 43.625028 -116.187280 293 10666ft 276kts
29-Jan-21 16:35 43.652205 -116.279778 293 9087ft 258kts
29-Jan-21 16:36 43.678470 -116.370727 293 7486ft 255kts
29-Jan-21 16:37 43.703911 -116.458823 293 6677ft 238kts
29-Jan-21 16:38 43.714163 -116.542075 227 5366ft 228kts
29-Jan-21 16:39 43.667520 -116.517049 128 4999ft 198kts
29-Jan-21 16:40 43.640524 -116.450430 113 4999ft 200kts
29-Jan-21 16:41 43.616872 -116.380515 113 4970ft 202kts
29-Jan-21 16:42 43.594511 -116.314651 113 3989ft 155kts
29-Jan-21 16:43 43.578470 -116.267410 113 3257ft 126kts
29-Jan-21 16:44 43.565740 -116.230030 113 2845ft 72kts
29-Jan-21 16:45 43.563308 -116.225600 213 2851ft 0kts

Navigation Log

Ident Type
Flight plan parsing failed, navigation log unavailable